aviador You're here:

KBLU Decoded Metar

EMIGRANT GAP in CA, USA
Report Time2017-07-21 01:52:00
UTC Time2017-07-21 02:53:48
Flight Rules vfr VFR
Wind240° at 04 kt
W.Decomp.*RWY 15: 1.1 kt HW 3.8 kt RCW
W.Rank240° ranks 25
Current wind is below 240° avg. (5.7)
Visibility9999 m
Phenomena:N/A
Clouds:N/A
Expected CloudBase > 8,000 ft AGL from Temp-Dew spread
CeilingNone
Temp23°C (ISA +18)
Dew Point03°C (27% RH)
AAT20.1°C
QNH1024 hPa
Density Alt7,139 ft
Elevation5,279 ft
Report Wrong Elevation
Raw Report
METAR KBLU 210152Z AUTO 24004KT 10SM CLR 23/03 A3023 RMK AO2 SLP145
T02280028 TSNO=

Extra information for KBLU:More info

Metar Taf Metar & Taf Last 4 Metars F.Rules Stats Wind Profile Meteogram Temp Stats Airport Information Weather charts Add Link Nearby VenuesMetar ALERT Operation Metar Decoded Social comments

AIRNAV info for KBLU